createdAt,value
2016-11-02T00:01:10.931Z,924.83
2016-11-02T00:02:24.496Z,924.9
2016-11-02T00:03:37.645Z,924.9
2016-11-02T00:04:50.718Z,924.9
2016-11-02T00:06:03.925Z,924.97
2016-11-02T00:07:16.965Z,925.02
2016-11-02T00:08:30.570Z,925.01
2016-11-02T00:09:43.614Z,925.05
2016-11-02T00:10:56.149Z,925.08
2016-11-02T00:12:08.761Z,925.11
2016-11-02T00:13:21.878Z,925.15
2016-11-02T00:14:35.670Z,925.16
2016-11-02T00:15:49.358Z,925.12
2016-11-02T00:17:01.469Z,925.13
2016-11-02T00:18:14.042Z,925.11
2016-11-02T00:19:27.675Z,925.07
2016-11-02T00:20:40.861Z,925.11
2016-11-02T00:21:54.022Z,925.15
2016-11-02T00:23:07.597Z,925.15
2016-11-02T00:24:21.106Z,925.17
2016-11-02T00:25:34.841Z,925.17
2016-11-02T00:26:48.012Z,925.15
2016-11-02T00:28:01.783Z,925.16
2016-11-02T00:29:14.279Z,925.18
2016-11-02T00:30:27.820Z,925.18
2016-11-02T00:31:41.891Z,925.18
2016-11-02T00:32:54.932Z,925.15
2016-11-02T00:34:08.161Z,925.2
2016-11-02T00:35:21.854Z,925.23
2016-11-02T00:36:35.545Z,925.2
2016-11-02T00:37:48.682Z,925.17
2016-11-02T00:39:02.384Z,925.23
2016-11-02T00:40:15.379Z,925.24
2016-11-02T00:41:28.913Z,925.28
2016-11-02T00:42:42.471Z,925.28
2016-11-02T00:43:56.227Z,925.29
2016-11-02T00:45:09.949Z,925.3
2016-11-02T00:46:22.528Z,925.32
2016-11-02T00:47:35.505Z,925.29
2016-11-02T00:48:48.565Z,925.3
2016-11-02T00:50:01.634Z,925.28
2016-11-02T00:51:15.293Z,925.29
2016-11-02T00:52:28.935Z,925.29
2016-11-02T00:53:41.147Z,925.33
2016-11-02T00:54:54.897Z,925.27
2016-11-02T00:56:08.508Z,925.31
2016-11-02T00:57:21.641Z,925.32
2016-11-02T00:58:35.472Z,925.27
2016-11-02T00:59:50.825Z,925.28
2016-11-02T01:01:04.534Z,925.29
2016-11-02T01:02:17.148Z,925.25
2016-11-02T01:03:30.729Z,925.27
2016-11-02T01:04:43.996Z,925.25
2016-11-02T01:05:56.282Z,925.28
2016-11-02T01:07:09.959Z,925.31
2016-11-02T01:08:22.001Z,925.27
2016-11-02T01:09:34.507Z,925.25
2016-11-02T01:10:47.113Z,925.23
2016-11-02T01:12:00.692Z,925.27
2016-11-02T01:13:14.286Z,925.28
2016-11-02T01:14:28.043Z,925.27
2016-11-02T01:15:41.242Z,925.21
2016-11-02T01:16:54.700Z,925.19
2016-11-02T01:18:07.905Z,925.21
2016-11-02T01:19:21.036Z,925.17
2016-11-02T01:20:33.765Z,925.13
2016-11-02T01:21:46.836Z,925.12
2016-11-02T01:23:00.040Z,925.15
2016-11-02T01:24:13.277Z,925.11
2016-11-02T01:25:26.898Z,925.15
2016-11-02T01:26:39.448Z,925.12
2016-11-02T01:27:53.210Z,925.16
2016-11-02T01:29:06.223Z,925.17
2016-11-02T01:30:19.267Z,925.1
2016-11-02T01:31:32.742Z,925.12
2016-11-02T01:32:46.385Z,925.09
2016-11-02T01:33:59.457Z,925.11
2016-11-02T01:35:12.462Z,925.11
2016-11-02T01:36:25.527Z,925.09
2016-11-02T01:37:38.332Z,925.11
2016-11-02T01:38:51.648Z,925.05
2016-11-02T01:40:04.839Z,925.07
2016-11-02T01:41:18.019Z,925.06
2016-11-02T01:42:30.507Z,925.03
2016-11-02T01:43:43.512Z,925.02
2016-11-02T01:44:56.579Z,924.99
2016-11-02T01:46:10.103Z,924.98
2016-11-02T01:47:23.105Z,924.98
2016-11-02T01:48:35.636Z,924.94
2016-11-02T01:49:48.789Z,924.9
2016-11-02T01:51:00.854Z,924.93
2016-11-02T01:52:13.419Z,924.9
2016-11-02T01:53:26.117Z,924.86
2016-11-02T01:54:39.270Z,924.83
2016-11-02T01:55:51.782Z,924.81
2016-11-02T01:57:04.861Z,924.8
2016-11-02T01:58:17.921Z,924.79
2016-11-02T01:59:31.174Z,924.79
2016-11-02T02:00:44.253Z,924.77
2016-11-02T02:01:57.551Z,924.76
2016-11-02T02:03:10.128Z,924.7
2016-11-02T02:04:23.883Z,924.71
2016-11-02T02:05:37.446Z,924.69
2016-11-02T02:06:50.515Z,924.67
2016-11-02T02:08:04.216Z,924.69
2016-11-02T02:09:17.787Z,924.68
2016-11-02T02:10:29.862Z,924.68
2016-11-02T02:11:41.840Z,924.68
2016-11-02T02:12:55.007Z,924.68
2016-11-02T02:14:07.994Z,924.66
2016-11-02T02:15:21.733Z,924.66
2016-11-02T02:16:35.485Z,924.67
2016-11-02T02:17:49.167Z,924.64
2016-11-02T02:19:02.124Z,924.56
2016-11-02T02:20:14.664Z,924.52
2016-11-02T02:21:28.343Z,924.49
2016-11-02T02:22:41.863Z,924.45
2016-11-02T02:23:55.437Z,924.43
2016-11-02T02:25:09.064Z,924.44
2016-11-02T02:26:22.117Z,924.38
2016-11-02T02:27:35.347Z,924.38
2016-11-02T02:28:48.969Z,924.39
2016-11-02T02:30:01.998Z,924.35
2016-11-02T02:31:15.675Z,924.31
2016-11-02T02:32:28.743Z,924.29
2016-11-02T02:33:41.393Z,924.28
2016-11-02T02:34:54.610Z,924.23
2016-11-02T02:36:07.404Z,924.24
2016-11-02T02:37:21.034Z,924.22
2016-11-02T02:38:34.599Z,924.2
2016-11-02T02:39:48.250Z,924.19
2016-11-02T02:41:01.870Z,924.21
2016-11-02T02:42:14.484Z,924.26
2016-11-02T02:43:27.558Z,924.29
2016-11-02T02:44:40.681Z,924.29
2016-11-02T02:45:54.260Z,924.33
2016-11-02T02:47:07.949Z,924.3
2016-11-02T02:48:21.004Z,924.29
2016-11-02T02:49:34.590Z,924.26
2016-11-02T02:50:46.619Z,924.22
2016-11-02T02:51:59.097Z,924.22
2016-11-02T02:53:12.708Z,924.16
2016-11-02T02:54:26.358Z,924.12
2016-11-02T02:55:39.389Z,924.11
2016-11-02T02:56:52.952Z,924.07
2016-11-02T02:58:06.615Z,924.05
2016-11-02T02:59:19.675Z,924.05
2016-11-02T03:00:32.758Z,924.04
2016-11-02T03:01:45.404Z,924.06
2016-11-02T03:02:58.579Z,924.01
2016-11-02T03:04:11.750Z,924.01
2016-11-02T03:05:24.775Z,923.92
2016-11-02T03:06:38.395Z,923.93
2016-11-02T03:07:51.947Z,923.91
2016-11-02T03:09:04.997Z,923.92
2016-11-02T03:10:18.122Z,923.97
2016-11-02T03:11:31.135Z,923.96
2016-11-02T03:12:44.812Z,923.93
2016-11-02T03:13:57.944Z,923.92
2016-11-02T03:15:10.964Z,923.85
2016-11-02T03:16:24.599Z,923.81
2016-11-02T03:17:37.666Z,923.74
2016-11-02T03:18:50.689Z,923.75
2016-11-02T03:20:04.264Z,923.76
2016-11-02T03:21:17.910Z,923.75
2016-11-02T03:22:31.477Z,923.74
2016-11-02T03:23:44.491Z,923.78
2016-11-02T03:24:58.058Z,923.76
2016-11-02T03:26:11.610Z,923.72
2016-11-02T03:27:25.241Z,923.72
2016-11-02T03:28:37.735Z,923.69
2016-11-02T03:29:51.218Z,923.76
2016-11-02T03:32:32.279Z,923.7
2016-11-02T03:33:45.913Z,923.73
2016-11-02T03:34:58.942Z,923.69
2016-11-02T03:36:12.540Z,923.76
2016-11-02T03:37:25.030Z,923.77
2016-11-02T03:38:38.693Z,923.8
2016-11-02T03:39:51.215Z,923.77
2016-11-02T03:41:04.805Z,923.71
2016-11-02T03:42:17.883Z,923.72
2016-11-02T03:43:31.009Z,923.69
2016-11-02T03:44:44.604Z,923.61
2016-11-02T03:45:57.653Z,923.57
2016-11-02T03:47:11.193Z,923.53
2016-11-02T03:48:23.699Z,923.5
2016-11-02T03:49:36.790Z,923.45
2016-11-02T03:50:49.852Z,923.41
2016-11-02T03:52:02.360Z,923.41
2016-11-02T03:53:15.435Z,923.41
2016-11-02T03:54:28.492Z,923.4
2016-11-02T03:55:41.565Z,923.39
2016-11-02T03:56:55.108Z,923.41
2016-11-02T03:58:08.707Z,923.4
2016-11-02T03:59:22.228Z,923.36
2016-11-02T04:00:35.297Z,923.32
2016-11-02T04:01:48.425Z,923.31
2016-11-02T04:03:01.942Z,923.34
2016-11-02T04:04:15.031Z,923.32
2016-11-02T04:05:28.654Z,923.27
2016-11-02T04:06:41.721Z,923.22
2016-11-02T04:07:55.405Z,923.18
2016-11-02T04:09:08.504Z,923.16
2016-11-02T04:10:21.602Z,923.19
2016-11-02T04:11:34.655Z,923.2
2016-11-02T04:12:47.740Z,923.17
2016-11-02T04:14:00.356Z,923.17
2016-11-02T04:15:13.963Z,923.17
2016-11-02T04:16:27.606Z,923.19
2016-11-02T04:17:40.705Z,923.13
2016-11-02T04:18:54.300Z,923.16
2016-11-02T04:20:07.958Z,923.14
2016-11-02T04:21:21.068Z,923.12
2016-11-02T04:22:34.682Z,923.13
2016-11-02T04:23:48.274Z,923.1
2016-11-02T04:25:01.912Z,923.1
2016-11-02T04:26:15.167Z,923.05
2016-11-02T04:27:28.820Z,923.02
2016-11-02T04:28:42.437Z,923.03
2016-11-02T04:29:56.042Z,923.04
2016-11-02T04:31:09.693Z,923.01
2016-11-02T04:32:22.805Z,922.97
2016-11-02T04:33:35.850Z,922.97
2016-11-02T04:34:49.446Z,922.97
2016-11-02T04:36:03.143Z,922.93
2016-11-02T04:37:16.783Z,922.92
2016-11-02T04:38:29.936Z,922.91
2016-11-02T04:39:43.517Z,922.89
2016-11-02T04:40:55.472Z,922.88
2016-11-02T04:42:08.072Z,922.87
2016-11-02T04:43:20.578Z,922.84
2016-11-02T04:44:33.657Z,922.89
2016-11-02T04:45:46.185Z,922.86
2016-11-02T04:46:59.839Z,922.83
2016-11-02T04:48:12.917Z,922.85
2016-11-02T04:49:25.483Z,922.82
2016-11-02T04:50:39.193Z,922.8
2016-11-02T04:51:52.296Z,922.77
2016-11-02T04:53:04.840Z,922.79
2016-11-02T04:54:17.915Z,922.78
2016-11-02T04:55:31.500Z,922.78
2016-11-02T04:56:45.135Z,922.75
2016-11-02T04:57:58.149Z,922.76
2016-11-02T04:59:11.824Z,922.72
2016-11-02T05:00:25.436Z,922.71
2016-11-02T05:01:38.496Z,922.7
2016-11-02T05:02:51.585Z,922.68
2016-11-02T05:04:05.246Z,922.64
2016-11-02T05:05:18.321Z,922.63
2016-11-02T05:06:31.947Z,922.64
2016-11-02T05:07:45.545Z,922.63
2016-11-02T05:08:58.080Z,922.63
2016-11-02T05:10:11.660Z,922.62
2016-11-02T05:11:24.229Z,922.63
2016-11-02T05:12:37.817Z,922.66
2016-11-02T05:13:51.376Z,922.67
2016-11-02T05:15:04.436Z,922.64
2016-11-02T05:16:17.003Z,922.65
2016-11-02T05:17:30.097Z,922.63
2016-11-02T05:18:43.187Z,922.61
2016-11-02T05:19:56.796Z,922.63
2016-11-02T05:21:10.492Z,922.64
2016-11-02T05:22:23.555Z,922.63
2016-11-02T05:23:36.674Z,922.64
2016-11-02T05:24:49.805Z,922.6
2016-11-02T05:26:03.359Z,922.57
2016-11-02T05:27:16.463Z,922.58
2016-11-02T05:28:29.504Z,922.58
2016-11-02T05:29:42.575Z,922.56
2016-11-02T05:30:55.187Z,922.57
2016-11-02T05:32:08.308Z,922.63
2016-11-02T05:33:21.949Z,922.63
2016-11-02T05:34:35.081Z,922.64
2016-11-02T05:35:47.652Z,922.64
2016-11-02T05:37:00.833Z,922.66
2016-11-02T05:38:13.950Z,922.68
2016-11-02T05:39:27.552Z,922.72
2016-11-02T05:40:40.129Z,922.68
2016-11-02T05:41:53.748Z,922.72
2016-11-02T05:43:07.338Z,922.69
2016-11-02T05:44:20.436Z,922.69
2016-11-02T05:45:33.015Z,922.68
2016-11-02T05:46:46.679Z,922.69
2016-11-02T05:47:59.759Z,922.69
2016-11-02T05:49:12.778Z,922.64
2016-11-02T05:50:26.330Z,922.65
2016-11-02T05:51:40.037Z,922.65
2016-11-02T05:52:53.700Z,922.61
2016-11-02T05:54:06.714Z,922.6
2016-11-02T05:55:20.419Z,922.59
2016-11-02T05:56:33.555Z,922.56
2016-11-02T05:57:47.170Z,922.56
2016-11-02T05:59:00.765Z,922.52
2016-11-02T06:00:13.852Z,922.58
2016-11-02T06:01:26.475Z,922.56
2016-11-02T06:02:40.052Z,922.58
2016-11-02T06:03:53.076Z,922.57
2016-11-02T06:05:05.643Z,922.64
2016-11-02T06:06:18.716Z,922.63
2016-11-02T06:07:32.350Z,922.63
2016-11-02T06:08:45.967Z,922.63
2016-11-02T06:09:58.541Z,922.63
2016-11-02T06:11:11.647Z,922.62
2016-11-02T06:12:25.202Z,922.56
2016-11-02T06:13:38.296Z,922.65
2016-11-02T06:14:51.940Z,922.66
2016-11-02T06:16:05.076Z,922.58
2016-11-02T06:17:18.670Z,922.65
2016-11-02T06:18:31.750Z,922.59
2016-11-02T06:19:45.292Z,922.6
2016-11-02T06:20:57.860Z,922.63
2016-11-02T06:22:10.932Z,922.63
2016-11-02T06:23:24.078Z,922.7
2016-11-02T06:24:37.694Z,922.75
2016-11-02T06:25:49.740Z,922.78
2016-11-02T06:27:02.859Z,922.74
2016-11-02T06:28:16.442Z,922.73
2016-11-02T06:29:29.566Z,922.74
2016-11-02T06:30:43.256Z,922.75
2016-11-02T06:31:55.886Z,922.71
2016-11-02T06:33:08.444Z,922.69
2016-11-02T06:34:21.564Z,922.66
2016-11-02T06:35:34.646Z,922.64
2016-11-02T06:36:48.259Z,922.66
2016-11-02T06:38:01.348Z,922.67
2016-11-02T06:39:14.458Z,922.69
2016-11-02T06:40:27.502Z,922.71
2016-11-02T06:41:41.152Z,922.69
2016-11-02T06:42:54.786Z,922.69
2016-11-02T06:44:08.387Z,922.66
2016-11-02T06:45:22.004Z,922.69
2016-11-02T06:46:34.548Z,922.67
2016-11-02T06:47:48.132Z,922.62
2016-11-02T06:49:00.649Z,922.64
2016-11-02T06:50:12.704Z,922.67
2016-11-02T06:51:24.773Z,922.7
2016-11-02T06:52:37.382Z,922.7
2016-11-02T06:53:50.945Z,922.73
2016-11-02T06:55:03.538Z,922.78
2016-11-02T06:56:16.622Z,922.77
2016-11-02T06:57:30.316Z,922.75
2016-11-02T06:58:44.006Z,922.74
2016-11-02T06:59:57.128Z,922.74
2016-11-02T07:01:10.218Z,922.69
2016-11-02T07:02:22.794Z,922.65
2016-11-02T07:03:35.852Z,922.63
2016-11-02T07:04:49.473Z,922.58
2016-11-02T07:06:02.550Z,922.62
2016-11-02T07:07:16.124Z,922.63
2016-11-02T07:08:29.779Z,922.65
2016-11-02T07:09:42.838Z,922.63
2016-11-02T07:10:55.408Z,922.66
2016-11-02T07:12:07.405Z,922.62
2016-11-02T07:13:19.337Z,922.61
2016-11-02T07:14:32.385Z,922.65
2016-11-02T07:15:45.979Z,922.65
2016-11-02T07:16:58.078Z,922.63
2016-11-02T07:18:10.665Z,922.61
2016-11-02T07:19:22.696Z,922.57
2016-11-02T07:20:35.217Z,922.59
2016-11-02T07:21:48.875Z,922.6
2016-11-02T07:23:01.973Z,922.61
2016-11-02T07:24:15.093Z,922.64
2016-11-02T07:25:28.703Z,922.69
2016-11-02T07:26:40.697Z,922.67
2016-11-02T07:27:54.324Z,922.68
2016-11-02T07:29:06.872Z,922.67
2016-11-02T07:30:20.458Z,922.73
2016-11-02T07:31:32.408Z,922.7
2016-11-02T07:32:44.406Z,922.73
2016-11-02T07:33:57.001Z,922.75
2016-11-02T07:35:10.596Z,922.72
2016-11-02T07:36:23.646Z,922.73
2016-11-02T07:37:36.750Z,922.8
2016-11-02T07:38:49.274Z,922.79
2016-11-02T07:40:02.781Z,922.81
2016-11-02T07:41:15.923Z,922.79
2016-11-02T07:42:28.537Z,922.81
2016-11-02T07:43:42.093Z,922.87
2016-11-02T07:44:55.740Z,922.87
2016-11-02T07:46:08.823Z,922.89
2016-11-02T07:47:21.381Z,922.85
2016-11-02T07:48:34.986Z,922.9
2016-11-02T07:49:48.158Z,922.88
2016-11-02T07:51:00.224Z,922.86
2016-11-02T07:52:13.807Z,922.79
2016-11-02T07:53:26.352Z,922.81
2016-11-02T07:54:39.383Z,922.8
2016-11-02T07:55:52.381Z,922.81
2016-11-02T07:57:05.462Z,922.79
2016-11-02T07:58:18.537Z,922.82
2016-11-02T07:59:32.227Z,922.84
2016-11-02T08:00:44.713Z,922.81
2016-11-02T08:01:58.353Z,922.83
2016-11-02T08:03:10.918Z,922.89
2016-11-02T08:04:24.074Z,922.91
2016-11-02T08:05:36.118Z,922.94
2016-11-02T08:06:49.198Z,922.94
2016-11-02T08:08:01.778Z,922.99
2016-11-02T08:09:14.366Z,922.98
2016-11-02T08:10:28.065Z,922.99
2016-11-02T08:11:41.832Z,923.02
2016-11-02T08:12:55.465Z,922.98
2016-11-02T08:14:08.541Z,922.98
2016-11-02T08:15:22.087Z,923.03
2016-11-02T08:16:34.647Z,922.98
2016-11-02T08:17:48.204Z,923.09
2016-11-02T08:19:00.660Z,923.09
2016-11-02T08:20:12.703Z,923.1
2016-11-02T08:21:26.372Z,923.14
2016-11-02T08:22:39.447Z,923.19
2016-11-02T08:23:52.996Z,923.16
2016-11-02T08:25:05.026Z,923.18
2016-11-02T08:26:18.112Z,923.19
2016-11-02T08:27:31.160Z,923.15
2016-11-02T08:28:44.772Z,923.15
2016-11-02T08:29:57.781Z,923.12
2016-11-02T08:31:11.355Z,923.17
2016-11-02T08:32:24.925Z,923.18
2016-11-02T08:33:38.476Z,923.18
2016-11-02T08:34:51.602Z,923.22
2016-11-02T08:36:04.128Z,923.21
2016-11-02T08:37:17.740Z,923.25
2016-11-02T08:38:31.362Z,923.25
2016-11-02T08:39:44.396Z,923.25
2016-11-02T08:40:57.437Z,923.3
2016-11-02T08:42:11.017Z,923.33
2016-11-02T08:43:24.122Z,923.26
2016-11-02T08:44:37.173Z,923.34
2016-11-02T08:45:50.243Z,923.34
2016-11-02T08:47:03.828Z,923.36
2016-11-02T08:48:16.961Z,923.36
2016-11-02T08:49:29.536Z,923.37
2016-11-02T08:50:42.552Z,923.4
2016-11-02T08:51:56.190Z,923.52
2016-11-02T08:53:08.171Z,923.46
2016-11-02T08:54:20.717Z,923.49
2016-11-02T08:55:33.302Z,923.51
2016-11-02T08:56:45.849Z,923.53
2016-11-02T08:57:58.378Z,923.59
2016-11-02T08:59:12.008Z,923.57
2016-11-02T09:00:23.996Z,923.66
2016-11-02T09:01:37.678Z,923.65
2016-11-02T09:02:51.267Z,923.7
2016-11-02T09:04:04.349Z,923.68
2016-11-02T09:05:17.429Z,923.65
2016-11-02T09:06:30.529Z,923.73
2016-11-02T09:07:43.130Z,923.76
2016-11-02T09:08:56.657Z,923.8
2016-11-02T09:10:09.717Z,923.79
2016-11-02T09:11:22.239Z,923.86
2016-11-02T09:12:35.832Z,923.89
2016-11-02T09:13:49.429Z,923.86
2016-11-02T09:15:02.503Z,923.88
2016-11-02T09:16:15.563Z,923.91
2016-11-02T09:17:28.621Z,923.86
2016-11-02T09:18:41.642Z,923.94
2016-11-02T09:19:54.724Z,923.76
2016-11-02T09:21:08.352Z,923.8
2016-11-02T09:22:20.341Z,923.8
2016-11-02T09:23:32.864Z,923.84
2016-11-02T09:24:46.479Z,923.84
2016-11-02T09:25:58.463Z,923.85
2016-11-02T09:27:11.596Z,924.08
2016-11-02T09:28:24.652Z,923.95
2016-11-02T09:29:37.180Z,924.06
2016-11-02T09:30:50.218Z,924.02
2016-11-02T09:32:02.766Z,923.97
2016-11-02T09:33:16.345Z,923.91
2016-11-02T09:34:29.435Z,923.95
2016-11-02T09:35:43.039Z,923.91
2016-11-02T09:36:55.670Z,923.93
2016-11-02T09:38:08.186Z,923.93
2016-11-02T09:39:21.858Z,923.93
2016-11-02T09:40:35.466Z,923.95
2016-11-02T09:41:48.542Z,923.93
2016-11-02T09:43:01.616Z,923.97
2016-11-02T09:44:14.188Z,923.99
2016-11-02T09:45:27.811Z,923.98
2016-11-02T09:46:39.786Z,924
2016-11-02T09:47:52.359Z,924
2016-11-02T09:49:04.918Z,924.01
2016-11-02T09:50:18.564Z,924.03
2016-11-02T09:51:31.586Z,924.06
2016-11-02T09:52:44.153Z,924.01
2016-11-02T09:53:56.129Z,924.06
2016-11-02T09:55:09.735Z,924.05
2016-11-02T09:56:23.350Z,924.05
2016-11-02T09:57:36.885Z,924.05
2016-11-02T09:58:49.409Z,924.05
2016-11-02T10:00:02.451Z,924.1
2016-11-02T10:01:14.930Z,924.11
2016-11-02T10:02:27.561Z,924.13
2016-11-02T10:03:40.655Z,924.11
2016-11-02T10:04:53.669Z,924.14
2016-11-02T10:06:06.792Z,924.16
2016-11-02T10:07:19.890Z,924.12
2016-11-02T10:08:32.375Z,924.13
2016-11-02T10:09:46.040Z,924.19
2016-11-02T10:10:59.072Z,924.19
2016-11-02T10:12:12.120Z,924.16
2016-11-02T10:13:25.154Z,924.15
2016-11-02T10:14:38.756Z,924.18
2016-11-02T10:15:50.759Z,924.21
2016-11-02T10:17:03.927Z,924.2
2016-11-02T10:18:15.963Z,924.26
2016-11-02T10:19:29.553Z,924.26
2016-11-02T10:20:42.631Z,924.26
2016-11-02T10:21:55.142Z,924.28
2016-11-02T10:23:07.687Z,924.41
2016-11-02T10:24:21.298Z,924.26
2016-11-02T10:25:34.323Z,924.27
2016-11-02T10:26:47.974Z,924.3
2016-11-02T10:28:01.581Z,924.3
2016-11-02T10:29:14.636Z,924.42
2016-11-02T10:30:26.613Z,924.42
2016-11-02T10:31:40.269Z,924.41
2016-11-02T10:32:52.848Z,924.41
2016-11-02T10:34:05.397Z,924.44
2016-11-02T10:35:18.041Z,924.41
2016-11-02T10:36:30.542Z,924.44
2016-11-02T10:37:43.088Z,924.42
2016-11-02T10:38:56.188Z,924.43
2016-11-02T10:40:08.190Z,924.41
2016-11-02T10:41:20.685Z,924.41
2016-11-02T10:42:34.276Z,924.41
2016-11-02T10:43:46.792Z,924.45
2016-11-02T10:44:59.345Z,924.46
2016-11-02T10:46:12.421Z,924.45
2016-11-02T10:47:24.915Z,924.5
2016-11-02T10:48:37.479Z,924.49
2016-11-02T10:49:50.586Z,924.48
2016-11-02T10:51:03.632Z,924.48
2016-11-02T10:52:17.268Z,924.57
2016-11-02T10:53:30.321Z,924.54
2016-11-02T10:54:43.427Z,924.55
2016-11-02T10:55:56.500Z,924.64
2016-11-02T10:57:07.448Z,924.57
2016-11-02T10:58:19.433Z,924.57
2016-11-02T10:59:32.514Z,924.53
2016-11-02T11:00:44.552Z,924.53
2016-11-02T11:01:57.624Z,924.54
2016-11-02T11:03:10.660Z,924.54
2016-11-02T11:04:23.274Z,924.54
2016-11-02T11:05:36.936Z,924.53
2016-11-02T11:06:49.930Z,924.49
2016-11-02T11:08:02.997Z,924.53
2016-11-02T11:09:16.684Z,924.54
2016-11-02T11:10:29.259Z,924.53
2016-11-02T11:11:42.290Z,924.53
2016-11-02T11:12:55.414Z,924.55
2016-11-02T11:14:08.473Z,924.6
2016-11-02T11:15:21.692Z,924.84
2016-11-02T11:16:34.179Z,924.85
2016-11-02T11:17:47.734Z,924.78
2016-11-02T11:19:00.273Z,924.87
2016-11-02T11:20:13.847Z,924.84
2016-11-02T11:21:27.448Z,924.74
2016-11-02T11:22:40.543Z,924.79
2016-11-02T11:23:54.110Z,924.81
2016-11-02T11:25:06.613Z,924.83
2016-11-02T11:26:19.160Z,924.81
2016-11-02T11:27:32.254Z,924.88
2016-11-02T11:28:44.352Z,924.92
2016-11-02T11:29:57.553Z,924.94
2016-11-02T11:31:10.631Z,924.93
2016-11-02T11:32:22.792Z,924.97
2016-11-02T11:33:34.925Z,924.9
2016-11-02T11:34:47.504Z,924.96
2016-11-02T11:36:01.027Z,924.94
2016-11-02T11:37:14.093Z,924.91
2016-11-02T11:38:27.112Z,924.94
2016-11-02T11:39:39.707Z,924.91
2016-11-02T11:40:52.780Z,924.94
2016-11-02T11:42:06.421Z,924.9
2016-11-02T11:43:19.558Z,924.96
2016-11-02T11:44:32.689Z,924.93
2016-11-02T11:45:46.278Z,924.99
2016-11-02T11:46:58.308Z,924.95
2016-11-02T11:48:10.879Z,924.97
2016-11-02T11:49:23.414Z,924.97
2016-11-02T11:50:36.536Z,924.96
2016-11-02T11:51:49.594Z,924.98
2016-11-02T11:53:03.170Z,924.98
2016-11-02T11:54:16.743Z,924.94
2016-11-02T11:55:29.329Z,925.01
2016-11-02T11:56:41.820Z,925.05
2016-11-02T11:57:54.915Z,924.99
2016-11-02T11:59:08.525Z,924.91
2016-11-02T12:00:21.589Z,924.99
2016-11-02T12:01:34.683Z,924.97
2016-11-02T12:02:47.723Z,924.99
2016-11-02T12:04:00.845Z,925.05
2016-11-02T12:05:14.500Z,925.02
2016-11-02T12:06:27.016Z,924.98
2016-11-02T12:07:40.106Z,924.98
2016-11-02T12:08:52.254Z,924.98
2016-11-02T12:10:04.870Z,924.78
2016-11-02T12:11:18.044Z,924.98
2016-11-02T12:12:31.671Z,924.94
2016-11-02T12:13:44.252Z,924.97
2016-11-02T12:14:56.215Z,924.88
2016-11-02T12:16:09.259Z,924.96
2016-11-02T12:17:22.330Z,924.92
2016-11-02T12:18:34.376Z,924.99
2016-11-02T12:19:46.920Z,924.7
2016-11-02T12:21:00.001Z,924.96
2016-11-02T12:22:13.106Z,924.89
2016-11-02T12:23:26.187Z,924.92
2016-11-02T12:24:39.259Z,924.98
2016-11-02T12:25:52.304Z,924.86
2016-11-02T12:27:04.849Z,924.93
2016-11-02T12:28:18.528Z,924.96
2016-11-02T12:29:31.623Z,924.95
2016-11-02T12:30:45.224Z,924.94
2016-11-02T12:31:57.785Z,924.85
2016-11-02T12:33:10.972Z,924.84
2016-11-02T12:34:24.137Z,924.92
2016-11-02T12:35:36.226Z,924.93
2016-11-02T12:36:49.287Z,924.9
2016-11-02T12:38:02.412Z,924.94
2016-11-02T12:39:15.426Z,924.8
2016-11-02T12:40:27.489Z,924.98
2016-11-02T12:41:40.108Z,924.96
2016-11-02T12:42:53.128Z,924.88
2016-11-02T12:44:06.742Z,924.84
2016-11-02T12:45:19.332Z,924.91
2016-11-02T12:46:31.886Z,924.7
2016-11-02T12:47:45.463Z,924.78
2016-11-02T12:48:58.580Z,924.7
2016-11-02T12:50:11.690Z,924.78
2016-11-02T12:51:23.192Z,924.76
2016-11-02T12:52:35.751Z,924.8
2016-11-02T12:53:48.808Z,924.72
2016-11-02T12:55:02.390Z,924.78
2016-11-02T12:56:15.525Z,924.83
2016-11-02T12:57:28.597Z,924.73
2016-11-02T12:58:41.613Z,924.82
2016-11-02T12:59:55.235Z,924.68
2016-11-02T13:01:07.779Z,924.74
2016-11-02T13:02:19.806Z,924.87
2016-11-02T13:03:32.343Z,924.91
2016-11-02T13:04:45.462Z,924.86
2016-11-02T13:05:59.144Z,924.89
2016-11-02T13:07:12.283Z,924.69
2016-11-02T13:08:25.327Z,924.82
2016-11-02T13:09:37.888Z,924.92
2016-11-02T13:10:50.443Z,924.71
2016-11-02T13:12:02.475Z,924.78
2016-11-02T13:13:15.005Z,924.78
2016-11-02T13:14:27.560Z,924.73
2016-11-02T13:15:39.085Z,924.76
2016-11-02T13:16:52.136Z,924.87
2016-11-02T13:18:05.293Z,924.74
2016-11-02T13:19:18.939Z,924.74
2016-11-02T13:20:32.027Z,924.81
2016-11-02T13:21:43.470Z,924.7
2016-11-02T13:22:55.986Z,924.71
2016-11-02T13:24:08.512Z,924.58
2016-11-02T13:25:20.499Z,924.8
2016-11-02T13:26:33.557Z,924.69
2016-11-02T13:27:46.144Z,924.67
2016-11-02T13:28:58.684Z,924.72
2016-11-02T13:30:11.340Z,924.8
2016-11-02T13:31:24.441Z,924.61
2016-11-02T13:32:37.499Z,924.72
2016-11-02T13:33:50.530Z,924.61
2016-11-02T13:35:02.011Z,924.61
2016-11-02T13:36:15.084Z,924.64
2016-11-02T13:37:27.115Z,924.6
2016-11-02T13:38:40.210Z,924.64
2016-11-02T13:39:53.800Z,924.61
2016-11-02T13:41:06.905Z,924.6
2016-11-02T13:42:19.921Z,924.5
2016-11-02T13:43:32.464Z,924.64
2016-11-02T13:44:46.127Z,924.5
2016-11-02T13:45:59.223Z,924.57
2016-11-02T13:47:12.352Z,924.53
2016-11-02T13:48:24.967Z,924.45
2016-11-02T13:49:38.664Z,924.38
2016-11-02T13:50:52.320Z,924.58
2016-11-02T13:52:05.443Z,924.42
2016-11-02T13:53:18.522Z,924.41
2016-11-02T13:54:31.607Z,924.45
2016-11-02T13:55:43.585Z,924.37
2016-11-02T13:56:56.668Z,924.42
2016-11-02T13:58:09.217Z,924.49
2016-11-02T13:59:22.899Z,924.44
2016-11-02T14:00:36.014Z,924.4
2016-11-02T14:01:49.117Z,924.41
2016-11-02T14:03:01.747Z,924.41
2016-11-02T14:04:14.815Z,924.4
2016-11-02T14:05:27.518Z,924.57
2016-11-02T14:06:40.542Z,924.47
2016-11-02T14:07:54.156Z,924.38
2016-11-02T14:09:06.651Z,924.4
2016-11-02T14:10:20.236Z,924.44
2016-11-02T14:11:33.884Z,924.42
2016-11-02T14:12:46.894Z,924.28
2016-11-02T14:13:58.869Z,924.54
2016-11-02T14:15:11.474Z,924.34
2016-11-02T14:16:24.070Z,924.45
2016-11-02T14:17:36.094Z,924.38
2016-11-02T14:18:48.580Z,924.4
2016-11-02T14:20:01.730Z,924.39
2016-11-02T14:21:14.837Z,924.34
2016-11-02T14:22:27.379Z,924.39
2016-11-02T14:23:40.991Z,924.41
2016-11-02T14:24:54.591Z,924.38
2016-11-02T14:26:08.188Z,924.32
2016-11-02T14:27:20.770Z,924.37
2016-11-02T14:28:33.830Z,924.4
2016-11-02T14:29:45.811Z,924.3
2016-11-02T14:30:58.896Z,924.34
2016-11-02T14:32:10.762Z,924.32
2016-11-02T14:33:23.788Z,924.29
2016-11-02T14:34:36.311Z,924.29
2016-11-02T14:35:49.927Z,924.37
2016-11-02T14:37:02.930Z,924.3
2016-11-02T14:38:15.542Z,924.25
2016-11-02T14:39:28.599Z,924.26
2016-11-02T14:40:42.232Z,924.3
2016-11-02T14:41:54.738Z,924.27
2016-11-02T14:43:07.318Z,924.25
2016-11-02T14:44:20.881Z,924.28
2016-11-02T14:45:33.965Z,924.28
2016-11-02T14:46:47.568Z,924.18
2016-11-02T14:48:01.194Z,924.18
2016-11-02T14:49:14.264Z,924.18
2016-11-02T14:50:25.740Z,924.21
2016-11-02T14:51:38.405Z,924.11
2016-11-02T14:52:51.638Z,924.16
2016-11-02T14:54:03.583Z,924.24
2016-11-02T14:55:17.132Z,924.14
2016-11-02T14:56:30.220Z,924.12
2016-11-02T14:57:42.754Z,924.13
2016-11-02T14:58:55.847Z,924.18
2016-11-02T15:00:09.464Z,924.05
2016-11-02T15:01:22.006Z,924.05
2016-11-02T15:02:35.168Z,924.04
2016-11-02T15:03:48.208Z,923.96
2016-11-02T15:05:01.330Z,924.05
2016-11-02T15:06:13.880Z,924.08
2016-11-02T15:07:25.872Z,924.05
2016-11-02T15:08:38.454Z,923.94
2016-11-02T15:09:52.071Z,923.89
2016-11-02T15:11:04.645Z,923.91
2016-11-02T15:12:18.249Z,923.89
2016-11-02T15:13:31.824Z,923.9
2016-11-02T15:14:43.870Z,923.87
2016-11-02T15:15:57.003Z,923.82